Time;durP1;ratioP1;P1;durP2;ratioP2;P2;SDS_P1;SDS_P2;PMS_P1;PMS_P2;Temp;Humidity;BMP_temperature;BMP_pressure;BME280_temperature;BME280_humidity;BME280_pressure;Samples;Min_cycle;Max_cycle;Signal;HPM_P1;HPM_P2
2022/07/15 00:02:07;;;;;;;;;;;15.40;99.90;;;;;;5117972;27;19927;-80
2022/07/15 00:04:33;;;;;;;;;;;15.30;99.90;;;;;;5133647;27;20405;-81
2022/07/15 00:06:59;;;;;;;;;;;15.30;99.90;;;;;;5116534;27;20379;-80
2022/07/15 00:10:13;;;;;;;;;;;15.20;99.90;;;;;;5103163;27;19931;-81
2022/07/15 00:12:10;;;;;;;;;;;15.20;99.90;;;;;;5106302;28;20029;-82
2022/07/15 00:14:37;;;;;;;;;;;15.20;99.90;;;;;;5128398;27;19981;-83
2022/07/15 00:17:02;;;;;;;;;;;15.10;99.90;;;;;;5133187;27;20317;-82
2022/07/15 00:19:28;;;;;;;;;;;15.10;99.90;;;;;;5118013;27;19930;-82
2022/07/15 00:21:53;;;;;;;;;;;15.10;99.90;;;;;;5102870;27;20271;-82
2022/07/15 00:24:19;;;;;;;;;;;15.10;99.90;;;;;;5102786;27;19923;-81
2022/07/15 00:26:44;;;;;;;;;;;15.00;99.90;;;;;;5103839;27;19934;-82
2022/07/15 00:29:10;;;;;;;;;;;15.00;99.90;;;;;;5102970;27;19923;-81
2022/07/15 00:31:36;;;;;;;;;;;15.10;99.90;;;;;;5101909;27;19923;-81
2022/07/15 00:34:01;;;;;;;;;;;15.10;99.90;;;;;;5124412;27;19927;-81
2022/07/15 00:36:27;;;;;;;;;;;15.10;99.90;;;;;;5116477;27;19931;-79
2022/07/15 00:38:53;;;;;;;;;;;15.20;99.90;;;;;;5096684;28;20286;-81
2022/07/15 00:41:18;;;;;;;;;;;15.20;99.90;;;;;;5090557;27;20294;-80
2022/07/15 00:43:44;;;;;;;;;;;15.20;99.90;;;;;;5114135;27;19927;-81
2022/07/15 00:46:09;;;;;;;;;;;15.20;99.90;;;;;;5106149;28;19923;-80
2022/07/15 00:48:35;;;;;;;;;;;15.30;99.90;;;;;;5115748;28;19927;-80
2022/07/15 00:51:01;;;;;;;;;;;15.30;99.90;;;;;;5118381;28;20362;-80
2022/07/15 00:53:28;;;;;;;;;;;15.30;99.90;;;;;;5116164;28;19963;-80
2022/07/15 00:55:56;;;;;;;;;;;15.20;99.90;;;;;;5132580;28;19930;-80
2022/07/15 00:58:23;;;;;;;;;;;15.20;99.90;;;;;;5115892;28;19923;-80
2022/07/15 01:00:49;;;;;;;;;;;15.10;99.90;;;;;;5098526;28;19923;-80
2022/07/15 01:03:18;;;;;;;;;;;15.00;99.90;;;;;;5099310;28;20393;-80
2022/07/15 01:05:44;;;;;;;;;;;15.00;99.90;;;;;;5113239;27;20290;-80
2022/07/15 01:08:10;;;;;;;;;;;15.00;99.90;;;;;;5136505;27;19930;-81
2022/07/15 01:10:36;;;;;;;;;;;14.90;99.90;;;;;;5130074;28;19924;-81
2022/07/15 01:13:03;;;;;;;;;;;14.90;99.90;;;;;;5102875;27;19933;-81
2022/07/15 01:15:31;;;;;;;;;;;14.90;99.90;;;;;;5131522;28;19924;-80
2022/07/15 01:17:58;;;;;;;;;;;14.80;99.90;;;;;;5115769;28;19923;-80
2022/07/15 01:20:23;;;;;;;;;;;14.80;99.90;;;;;;5147015;27;19923;-80
2022/07/15 01:22:49;;;;;;;;;;;14.70;99.90;;;;;;5119220;27;19929;-80
2022/07/15 01:25:14;;;;;;;;;;;14.70;99.90;;;;;;5117697;27;19931;-81
2022/07/15 01:27:41;;;;;;;;;;;14.60;99.90;;;;;;5126209;28;20386;-80
2022/07/15 01:30:07;;;;;;;;;;;14.60;99.90;;;;;;5101310;27;20362;-81
2022/07/15 01:32:33;;;;;;;;;;;14.50;99.90;;;;;;5135955;27;19927;-80
2022/07/15 01:34:59;;;;;;;;;;;14.50;99.90;;;;;;5136434;27;20371;-80
2022/07/15 01:37:24;;;;;;;;;;;14.50;99.90;;;;;;5108699;28;20014;-80
2022/07/15 01:39:50;;;;;;;;;;;14.50;99.90;;;;;;5119482;28;20018;-80
2022/07/15 01:42:15;;;;;;;;;;;14.50;99.90;;;;;;5115919;28;19931;-80
2022/07/15 01:44:41;;;;;;;;;;;14.50;99.90;;;;;;5098597;28;19993;-81
2022/07/15 01:47:07;;;;;;;;;;;14.40;99.90;;;;;;5100104;27;19924;-80
2022/07/15 01:49:32;;;;;;;;;;;14.40;99.90;;;;;;5103077;27;19923;-80
2022/07/15 01:51:59;;;;;;;;;;;14.40;99.90;;;;;;5129058;27;20295;-80
2022/07/15 01:54:26;;;;;;;;;;;14.30;99.90;;;;;;5119472;27;19927;-80
2022/07/15 01:56:52;;;;;;;;;;;14.30;99.90;;;;;;5102192;27;19993;-80
2022/07/15 01:59:18;;;;;;;;;;;14.30;99.90;;;;;;5119222;27;19970;-80
2022/07/15 02:01:44;;;;;;;;;;;14.40;99.90;;;;;;5118836;27;19927;-80
2022/07/15 02:04:10;;;;;;;;;;;14.40;99.90;;;;;;5102249;27;19988;-80
2022/07/15 02:06:36;;;;;;;;;;;14.40;99.90;;;;;;5118877;27;19924;-80
2022/07/15 02:09:02;;;;;;;;;;;14.40;99.90;;;;;;5126698;27;19949;-80
2022/07/15 02:11:28;;;;;;;;;;;14.50;99.90;;;;;;5121623;27;19929;-80
2022/07/15 02:13:58;;;;;;;;;;;14.50;99.90;;;;;;5139251;27;19923;-80
2022/07/15 02:16:24;;;;;;;;;;;14.60;99.90;;;;;;5104393;27;20340;-81
2022/07/15 02:18:49;;;;;;;;;;;14.70;99.90;;;;;;5105339;27;19923;-80
2022/07/15 02:21:15;;;;;;;;;;;14.80;99.90;;;;;;5127805;27;20380;-80
2022/07/15 02:23:41;;;;;;;;;;;14.90;99.90;;;;;;5118830;27;19923;-80
2022/07/15 02:26:06;;;;;;;;;;;14.90;99.90;;;;;;5101327;27;19923;-79
2022/07/15 02:28:32;;;;;;;;;;;15.00;99.90;;;;;;5118820;27;19930;-79
2022/07/15 02:30:57;;;;;;;;;;;15.00;99.90;;;;;;5127805;27;20327;-79
2022/07/15 02:33:23;;;;;;;;;;;15.00;99.90;;;;;;5131175;27;19962;-79
2022/07/15 02:35:49;;;;;;;;;;;15.00;99.90;;;;;;5101911;27;19976;-80
2022/07/15 02:38:15;;;;;;;;;;;15.00;99.90;;;;;;5101625;27;19977;-79
2022/07/15 02:40:41;;;;;;;;;;;15.00;99.90;;;;;;5103232;27;19923;-80
2022/07/15 02:43:06;;;;;;;;;;;14.90;99.90;;;;;;5105296;27;20351;-79
2022/07/15 02:45:34;;;;;;;;;;;14.90;99.90;;;;;;5118480;27;20006;-79
2022/07/15 02:48:00;;;;;;;;;;;14.80;99.90;;;;;;5128598;27;19928;-79
2022/07/15 02:50:25;;;;;;;;;;;14.70;99.90;;;;;;5101630;27;20058;-79
2022/07/15 02:52:51;;;;;;;;;;;14.60;99.90;;;;;;5093255;27;19924;-80
2022/07/15 02:55:17;;;;;;;;;;;14.50;99.90;;;;;;5101469;27;19930;-79
2022/07/15 02:57:42;;;;;;;;;;;14.50;99.90;;;;;;5118169;27;20022;-81
2022/07/15 03:00:11;;;;;;;;;;;14.50;99.90;;;;;;5116858;27;19931;-79
2022/07/15 03:02:37;;;;;;;;;;;14.50;99.90;;;;;;5118311;27;19924;-80
2022/07/15 03:05:02;;;;;;;;;;;14.40;99.90;;;;;;5117785;27;20283;-79
2022/07/15 03:07:28;;;;;;;;;;;14.40;99.90;;;;;;5100983;27;20011;-79
2022/07/15 03:09:54;;;;;;;;;;;14.40;99.90;;;;;;5100510;27;20377;-80
2022/07/15 03:12:20;;;;;;;;;;;14.30;99.90;;;;;;5123297;27;20308;-79
2022/07/15 03:14:45;;;;;;;;;;;14.30;99.90;;;;;;5120961;27;19972;-80
2022/07/15 03:17:11;;;;;;;;;;;14.30;99.90;;;;;;5133991;27;19923;-79
2022/07/15 03:19:36;;;;;;;;;;;14.40;99.90;;;;;;5100663;27;19930;-79
2022/07/15 03:22:02;;;;;;;;;;;14.40;99.90;;;;;;5101446;27;19930;-81
2022/07/15 03:24:27;;;;;;;;;;;14.40;99.90;;;;;;5120890;27;19941;-79
2022/07/15 03:26:53;;;;;;;;;;;14.50;99.90;;;;;;5133788;27;20022;-80
2022/07/15 03:29:19;;;;;;;;;;;14.50;99.90;;;;;;5100876;27;19924;-79
2022/07/15 03:31:45;;;;;;;;;;;14.50;99.90;;;;;;5100413;27;19972;-79
2022/07/15 03:34:11;;;;;;;;;;;14.50;99.90;;;;;;5115007;27;20461;-79
2022/07/15 03:36:39;;;;;;;;;;;14.50;99.90;;;;;;5120275;27;19969;-80
2022/07/15 03:39:05;;;;;;;;;;;14.50;99.90;;;;;;5120485;27;20006;-79
2022/07/15 03:41:31;;;;;;;;;;;14.50;99.90;;;;;;5127199;27;19992;-79
2022/07/15 03:43:57;;;;;;;;;;;14.50;99.90;;;;;;5124636;27;19923;-79
2022/07/15 03:46:22;;;;;;;;;;;14.50;99.90;;;;;;5117292;27;19927;-79
2022/07/15 03:48:49;;;;;;;;;;;14.50;99.90;;;;;;5086396;27;20429;-79
2022/07/15 03:51:15;;;;;;;;;;;14.50;99.90;;;;;;5117013;27;20279;-79
2022/07/15 03:53:40;;;;;;;;;;;14.50;99.90;;;;;;5109093;27;19930;-79
2022/07/15 03:56:06;;;;;;;;;;;14.50;99.90;;;;;;5116829;27;19923;-80
2022/07/15 03:58:32;;;;;;;;;;;14.50;99.90;;;;;;5100233;27;19975;-79
2022/07/15 04:00:57;;;;;;;;;;;14.50;99.90;;;;;;5100474;27;19931;-80
2022/07/15 04:03:23;;;;;;;;;;;14.40;99.90;;;;;;5125328;27;20018;-79
2022/07/15 04:05:48;;;;;;;;;;;14.50;99.90;;;;;;5117967;27;19942;-79
2022/07/15 04:08:14;;;;;;;;;;;14.50;99.90;;;;;;5099647;27;19934;-80
2022/07/15 04:10:40;;;;;;;;;;;14.50;99.90;;;;;;5119680;27;20017;-79
2022/07/15 04:13:05;;;;;;;;;;;14.50;99.90;;;;;;5120066;27;19927;-80
2022/07/15 04:15:31;;;;;;;;;;;14.50;99.90;;;;;;5097322;27;19923;-80
2022/07/15 04:17:58;;;;;;;;;;;14.60;99.90;;;;;;5116401;27;19954;-80
2022/07/15 04:20:24;;;;;;;;;;;14.60;99.90;;;;;;5125867;27;20353;-79
2022/07/15 04:22:50;;;;;;;;;;;14.70;99.90;;;;;;5099713;27;19942;-80
2022/07/15 04:25:19;;;;;;;;;;;14.70;99.90;;;;;;5116504;27;19976;-79
2022/07/15 04:27:46;;;;;;;;;;;14.80;99.90;;;;;;5106660;27;19927;-80
2022/07/15 04:30:12;;;;;;;;;;;14.80;99.90;;;;;;5107507;27;20286;-79
2022/07/15 04:32:38;;;;;;;;;;;14.70;99.90;;;;;;5136404;27;19923;-80
2022/07/15 04:35:04;;;;;;;;;;;14.70;99.90;;;;;;5116302;27;19924;-79
2022/07/15 04:37:30;;;;;;;;;;;14.70;99.90;;;;;;5121542;27;20429;-80
2022/07/15 04:39:56;;;;;;;;;;;14.80;99.90;;;;;;5135507;27;19923;-79
2022/07/15 04:42:22;;;;;;;;;;;14.80;99.90;;;;;;5132679;27;19930;-79
2022/07/15 04:44:47;;;;;;;;;;;14.90;99.90;;;;;;5085339;28;19930;-79
2022/07/15 04:47:14;;;;;;;;;;;15.00;99.90;;;;;;5104104;27;19923;-80
2022/07/15 04:52:24;;;;;;;;;;;15.10;99.90;;;;;;5113773;28;19993;-79
2022/07/15 04:54:53;;;;;;;;;;;15.20;99.90;;;;;;5099026;28;19924;-79
2022/07/15 04:57:19;;;;;;;;;;;15.20;99.90;;;;;;5115936;28;19924;-80
2022/07/15 04:59:44;;;;;;;;;;;15.30;99.90;;;;;;5115956;28;19923;-80
2022/07/15 05:02:10;;;;;;;;;;;15.30;99.90;;;;;;5116717;27;19976;-80
2022/07/15 05:04:35;;;;;;;;;;;15.30;99.90;;;;;;5098971;28;19923;-80
2022/07/15 05:07:01;;;;;;;;;;;15.20;99.90;;;;;;5082459;28;19923;-79
2022/07/15 05:09:27;;;;;;;;;;;15.20;99.90;;;;;;5116462;28;20376;-79
2022/07/15 05:11:52;;;;;;;;;;;15.20;99.90;;;;;;5121387;28;20002;-80
2022/07/15 05:14:18;;;;;;;;;;;15.10;99.90;;;;;;5115824;28;20371;-80
2022/07/15 05:16:43;;;;;;;;;;;15.20;99.90;;;;;;5131186;27;19923;-80
2022/07/15 05:19:09;;;;;;;;;;;15.20;99.90;;;;;;5118764;27;19973;-80
2022/07/15 05:21:34;;;;;;;;;;;15.20;99.90;;;;;;5135984;27;19971;-80
2022/07/15 05:24:00;;;;;;;;;;;15.30;99.90;;;;;;5140074;27;19985;-79
2022/07/15 05:26:26;;;;;;;;;;;15.30;99.90;;;;;;5122952;27;19923;-79
2022/07/15 05:28:51;;;;;;;;;;;15.40;99.90;;;;;;5140539;27;20355;-80
2022/07/15 05:31:17;;;;;;;;;;;15.40;99.90;;;;;;5113296;27;19927;-79
2022/07/15 05:33:43;;;;;;;;;;;15.40;99.90;;;;;;5114580;27;19963;-79
2022/07/15 05:36:12;;;;;;;;;;;15.40;99.90;;;;;;5122283;27;19931;-80
2022/07/15 05:38:37;;;;;;;;;;;15.40;99.90;;;;;;5119544;27;19972;-80
2022/07/15 05:41:03;;;;;;;;;;;15.40;99.90;;;;;;5102393;27;19931;-80
2022/07/15 05:43:29;;;;;;;;;;;15.40;99.90;;;;;;5119467;27;19930;-79
2022/07/15 05:45:55;;;;;;;;;;;15.40;99.90;;;;;;5103708;27;19972;-79
2022/07/15 05:48:20;;;;;;;;;;;15.40;99.90;;;;;;5109830;27;20106;-79
2022/07/15 05:50:46;;;;;;;;;;;15.40;99.90;;;;;;5110624;27;19923;-79
2022/07/15 05:53:11;;;;;;;;;;;15.40;99.90;;;;;;5102306;27;19946;-80
2022/07/15 05:55:37;;;;;;;;;;;15.60;99.90;;;;;;5120832;27;19969;-79
2022/07/15 05:58:09;;;;;;;;;;;15.70;99.90;;;;;;5106625;27;19923;-79
2022/07/15 06:00:35;;;;;;;;;;;15.70;99.90;;;;;;5136002;27;20331;-79
2022/07/15 06:03:01;;;;;;;;;;;15.70;99.90;;;;;;5092353;27;19973;-79
2022/07/15 06:05:28;;;;;;;;;;;15.70;99.90;;;;;;5134569;27;20014;-81
2022/07/15 06:07:54;;;;;;;;;;;15.70;99.90;;;;;;5120475;27;19923;-81
2022/07/15 06:10:19;;;;;;;;;;;15.70;99.90;;;;;;5115198;27;20282;-79
2022/07/15 06:12:45;;;;;;;;;;;15.80;99.90;;;;;;5118999;27;20018;-83
2022/07/15 06:15:11;;;;;;;;;;;15.90;99.90;;;;;;5123842;27;19923;-79
2022/07/15 06:17:36;;;;;;;;;;;15.90;99.90;;;;;;5118717;27;19923;-79
2022/07/15 06:20:02;;;;;;;;;;;16.00;99.90;;;;;;5110193;27;19930;-81
2022/07/15 06:22:28;;;;;;;;;;;16.10;99.90;;;;;;5119978;27;19946;-78
2022/07/15 06:24:54;;;;;;;;;;;16.20;99.90;;;;;;5104078;27;20011;-78
2022/07/15 06:27:21;;;;;;;;;;;16.30;99.90;;;;;;5101547;27;20394;-79
2022/07/15 06:29:47;;;;;;;;;;;16.30;99.90;;;;;;5110094;27;20036;-78
2022/07/15 06:32:13;;;;;;;;;;;16.30;99.90;;;;;;5138788;27;19923;-79
2022/07/15 06:34:39;;;;;;;;;;;16.30;99.90;;;;;;5121840;27;19930;-78
2022/07/15 06:37:05;;;;;;;;;;;16.30;99.90;;;;;;5139131;27;19941;-78
2022/07/15 06:39:31;;;;;;;;;;;16.30;99.90;;;;;;5138836;27;19923;-79
2022/07/15 06:41:56;;;;;;;;;;;16.40;99.90;;;;;;5135205;27;20031;-81
2022/07/15 06:44:22;;;;;;;;;;;16.40;99.90;;;;;;5111303;27;19960;-79
2022/07/15 06:46:48;;;;;;;;;;;16.50;99.90;;;;;;5117757;27;20006;-82
2022/07/15 06:49:13;;;;;;;;;;;16.50;99.90;;;;;;5084307;27;20010;-86
2022/07/15 06:51:39;;;;;;;;;;;16.60;99.90;;;;;;5130252;27;19923;-79
2022/07/15 06:54:06;;;;;;;;;;;16.60;99.90;;;;;;5121645;27;19927;-83
2022/07/15 06:56:32;;;;;;;;;;;16.60;99.90;;;;;;5121002;27;19974;-82
2022/07/15 06:58:58;;;;;;;;;;;16.60;99.90;;;;;;5112345;27;19923;-93
2022/07/15 07:01:24;;;;;;;;;;;16.60;99.90;;;;;;5101981;27;19923;-83
2022/07/15 07:03:50;;;;;;;;;;;16.60;99.90;;;;;;5116244;27;19930;-81
2022/07/15 07:06:15;;;;;;;;;;;16.70;99.90;;;;;;5117967;27;19950;-89
2022/07/15 07:08:41;;;;;;;;;;;16.80;99.90;;;;;;5083990;27;19924;-80
2022/07/15 07:11:07;;;;;;;;;;;16.90;99.90;;;;;;5100640;27;19930;-80
2022/07/15 07:13:32;;;;;;;;;;;17.00;99.90;;;;;;5124381;27;20012;-80
2022/07/15 07:15:59;;;;;;;;;;;17.00;99.90;;;;;;5104847;27;20378;-83
2022/07/15 07:18:24;;;;;;;;;;;16.90;99.90;;;;;;5131160;27;20279;-82
2022/07/15 07:20:50;;;;;;;;;;;16.90;99.90;;;;;;5117453;27;19924;-83
2022/07/15 07:23:16;;;;;;;;;;;16.80;99.90;;;;;;5100763;27;19931;-83
2022/07/15 07:25:41;;;;;;;;;;;16.80;99.90;;;;;;5124058;27;20018;-82
2022/07/15 07:28:07;;;;;;;;;;;16.90;99.90;;;;;;5100407;27;20367;-82
2022/07/15 07:30:33;;;;;;;;;;;17.00;99.90;;;;;;5100388;27;20349;-82
2022/07/15 07:32:58;;;;;;;;;;;17.20;99.90;;;;;;5123879;27;19924;-81
2022/07/15 07:35:24;;;;;;;;;;;17.30;99.90;;;;;;5119470;27;19984;-82
2022/07/15 07:37:49;;;;;;;;;;;17.40;99.90;;;;;;5113094;27;20009;-82
2022/07/15 07:40:17;;;;;;;;;;;17.50;99.90;;;;;;5137820;27;19935;-81
2022/07/15 07:42:43;;;;;;;;;;;17.50;99.90;;;;;;5120337;27;20379;-84
2022/07/15 07:45:10;;;;;;;;;;;17.50;99.90;;;;;;5136037;27;20279;-81
2022/07/15 07:47:43;;;;;;;;;;;17.70;99.90;;;;;;5121266;27;20276;-80
2022/07/15 07:50:09;;;;;;;;;;;17.70;99.90;;;;;;5117356;27;19999;-82
2022/07/15 07:52:34;;;;;;;;;;;17.70;99.90;;;;;;5099936;27;20396;-82
2022/07/15 07:55:00;;;;;;;;;;;17.70;99.90;;;;;;5117029;27;19923;-82
2022/07/15 07:57:26;;;;;;;;;;;18.00;99.90;;;;;;5101477;27;19923;-83
2022/07/15 07:59:51;;;;;;;;;;;18.10;99.90;;;;;;5099915;27;19931;-82
2022/07/15 08:02:17;;;;;;;;;;;18.00;99.90;;;;;;5102979;27;19923;-82
2022/07/15 08:04:43;;;;;;;;;;;17.90;99.90;;;;;;5120295;27;19923;-80
2022/07/15 08:07:11;;;;;;;;;;;17.90;99.90;;;;;;5114524;27;19924;-79
2022/07/15 08:09:37;;;;;;;;;;;18.00;99.90;;;;;;5118916;27;20320;-81
2022/07/15 08:12:02;;;;;;;;;;;17.90;99.90;;;;;;5133729;27;19927;-80
2022/07/15 08:14:28;;;;;;;;;;;17.70;99.90;;;;;;5099780;27;19923;-81
2022/07/15 08:16:54;;;;;;;;;;;17.60;99.90;;;;;;5116592;27;19946;-82
2022/07/15 08:19:20;;;;;;;;;;;17.50;99.90;;;;;;5133673;27;19928;-80
2022/07/15 08:21:46;;;;;;;;;;;17.40;99.90;;;;;;5101080;27;19927;-89
2022/07/15 08:24:12;;;;;;;;;;;17.40;99.90;;;;;;5118236;27;19923;-80
2022/07/15 08:26:38;;;;;;;;;;;17.40;99.90;;;;;;5119431;27;19971;-79
2022/07/15 08:29:04;;;;;;;;;;;17.50;99.90;;;;;;5105861;27;19946;-80
2022/07/15 08:31:30;;;;;;;;;;;17.70;99.90;;;;;;5104701;27;19939;-81
2022/07/15 08:33:56;;;;;;;;;;;17.80;99.90;;;;;;5137105;27;19930;-82
2022/07/15 08:36:22;;;;;;;;;;;17.90;99.90;;;;;;5116989;27;19931;-82
2022/07/15 08:38:48;;;;;;;;;;;18.00;99.90;;;;;;5094085;28;20006;-81
2022/07/15 08:41:17;;;;;;;;;;;18.10;99.90;;;;;;5132086;27;20331;-82
2022/07/15 08:43:43;;;;;;;;;;;18.20;99.90;;;;;;5118595;27;19930;-82
2022/07/15 08:46:09;;;;;;;;;;;18.20;99.90;;;;;;5119299;27;20020;-79
2022/07/15 08:48:40;;;;;;;;;;;18.20;99.90;;;;;;5117122;27;19994;-79
2022/07/15 08:51:09;;;;;;;;;;;18.30;99.90;;;;;;5115969;28;20010;-79
2022/07/15 08:53:35;;;;;;;;;;;18.40;99.90;;;;;;5114697;28;20014;-78
2022/07/15 08:56:01;;;;;;;;;;;18.50;99.90;;;;;;5099101;27;20026;-81
2022/07/15 08:58:26;;;;;;;;;;;18.60;99.90;;;;;;5118952;27;20002;-79
2022/07/15 09:00:52;;;;;;;;;;;18.60;99.90;;;;;;5153309;27;20377;-78
2022/07/15 09:03:18;;;;;;;;;;;18.50;99.90;;;;;;5123960;27;19919;-80
2022/07/15 09:05:43;;;;;;;;;;;18.30;99.90;;;;;;5123274;27;20355;-81
2022/07/15 09:08:10;;;;;;;;;;;18.20;99.90;;;;;;5139666;27;20375;-79
2022/07/15 09:10:45;;;;;;;;;;;18.30;99.90;;;;;;5112728;27;20014;-81
2022/07/15 09:13:12;;;;;;;;;;;18.40;99.90;;;;;;5102850;27;20363;-79
2022/07/15 09:15:38;;;;;;;;;;;18.40;99.90;;;;;;5102802;27;19924;-81
2022/07/15 09:18:14;;;;;;;;;;;18.60;99.90;;;;;;5116906;27;19977;-80
2022/07/15 09:20:41;;;;;;;;;;;18.80;99.90;;;;;;5121931;27;19961;-82
2022/07/15 09:23:07;;;;;;;;;;;18.70;99.90;;;;;;5100372;27;20314;-79
2022/07/15 09:25:33;;;;;;;;;;;18.70;99.90;;;;;;5100361;27;19936;-84
2022/07/15 09:28:01;;;;;;;;;;;18.60;99.90;;;;;;5117486;27;20422;-83
2022/07/15 09:33:34;;;;;;;;;;;18.50;99.90;;;;;;5134042;27;20018;-78
2022/07/15 09:36:03;;;;;;;;;;;18.60;99.90;;;;;;5100164;27;20282;-82
2022/07/15 09:38:34;;;;;;;;;;;18.70;99.90;;;;;;5131931;27;20290;-80
2022/07/15 09:41:01;;;;;;;;;;;18.60;99.90;;;;;;5124545;27;20362;-83
2022/07/15 09:43:27;;;;;;;;;;;18.80;99.90;;;;;;5120516;27;20031;-82
2022/07/15 09:45:57;;;;;;;;;;;18.90;99.90;;;;;;5119608;27;20024;-83
2022/07/15 09:48:24;;;;;;;;;;;18.90;99.90;;;;;;5133807;27;19930;-81
2022/07/15 09:50:49;;;;;;;;;;;19.00;99.90;;;;;;5116659;27;19965;-81
2022/07/15 09:53:16;;;;;;;;;;;19.20;99.90;;;;;;5119804;27;19938;-83
2022/07/15 09:55:41;;;;;;;;;;;19.10;99.90;;;;;;5136918;27;19927;-81
2022/07/15 09:58:08;;;;;;;;;;;19.10;99.90;;;;;;5119932;27;20326;-81
2022/07/15 10:00:34;;;;;;;;;;;19.00;99.90;;;;;;5136364;27;19927;-82
2022/07/15 10:03:01;;;;;;;;;;;18.90;99.90;;;;;;5136352;27;19934;-82
2022/07/15 10:05:27;;;;;;;;;;;19.20;99.90;;;;;;5136456;27;19970;-82
2022/07/15 10:07:56;;;;;;;;;;;19.30;99.90;;;;;;5136209;27;19923;-83
2022/07/15 10:10:25;;;;;;;;;;;19.30;99.90;;;;;;5136927;27;19923;-80
2022/07/15 10:13:05;;;;;;;;;;;19.40;99.90;;;;;;5120223;27;19927;-82
2022/07/15 10:15:49;;;;;;;;;;;19.50;99.90;;;;;;5136315;27;20018;-81
2022/07/15 10:18:32;;;;;;;;;;;19.40;99.90;;;;;;5141929;27;19934;-84
2022/07/15 10:20:58;;;;;;;;;;;19.40;99.90;;;;;;5118709;27;19927;-84
2022/07/15 10:23:37;;;;;;;;;;;19.50;99.90;;;;;;5134724;27;19924;-85
2022/07/15 10:26:09;;;;;;;;;;;19.40;99.90;;;;;;5143823;27;19927;-84
2022/07/15 10:28:44;;;;;;;;;;;19.40;99.90;;;;;;5119450;27;19950;-83
2022/07/15 10:31:13;;;;;;;;;;;19.30;99.90;;;;;;5141414;27;19971;-82
2022/07/15 10:33:38;;;;;;;;;;;19.10;99.90;;;;;;5157286;27;19944;-84
2022/07/15 10:36:05;;;;;;;;;;;19.10;99.90;;;;;;5134987;27;19993;-82
2022/07/15 10:38:37;;;;;;;;;;;19.30;99.90;;;;;;5117281;27;19960;-84
2022/07/15 10:41:06;;;;;;;;;;;19.50;99.90;;;;;;5122329;27;19950;-81
2022/07/15 10:43:51;;;;;;;;;;;19.40;99.90;;;;;;5157602;27;19971;-83
2022/07/15 10:46:17;;;;;;;;;;;19.30;99.90;;;;;;5156974;27;19946;-82
2022/07/15 10:48:46;;;;;;;;;;;19.10;99.90;;;;;;5156243;27;20366;-83
2022/07/15 10:51:13;;;;;;;;;;;19.20;99.90;;;;;;5137433;27;19978;-82
2022/07/15 10:53:45;;;;;;;;;;;19.60;99.90;;;;;;5119591;27;19991;-84
2022/07/15 10:56:26;;;;;;;;;;;19.80;99.90;;;;;;5119067;27;20018;-82
2022/07/15 10:59:10;;;;;;;;;;;19.90;99.90;;;;;;5136003;27;20158;-81
2022/07/15 11:01:36;;;;;;;;;;;20.00;99.90;;;;;;5118553;27;19985;-83
2022/07/15 11:04:13;;;;;;;;;;;20.10;99.90;;;;;;5127956;27;19933;-82
2022/07/15 11:06:57;;;;;;;;;;;19.90;99.90;;;;;;5118260;27;19931;-83
2022/07/15 11:09:42;;;;;;;;;;;19.60;99.90;;;;;;5136153;27;19933;-85
2022/07/15 11:12:07;;;;;;;;;;;19.30;99.90;;;;;;5118356;27;19934;-82
2022/07/15 11:14:43;;;;;;;;;;;19.30;99.90;;;;;;5139085;27;19927;-82
2022/07/15 11:17:10;;;;;;;;;;;19.20;99.90;;;;;;5156588;27;20014;-83
2022/07/15 11:19:36;;;;;;;;;;;19.20;99.90;;;;;;5138613;27;19943;-81
2022/07/15 11:22:02;;;;;;;;;;;19.20;99.90;;;;;;5155998;27;20293;-82
2022/07/15 11:24:28;;;;;;;;;;;19.20;99.90;;;;;;5114325;27;19927;-84
2022/07/15 11:26:54;;;;;;;;;;;19.20;99.90;;;;;;5134718;27;20027;-83
2022/07/15 11:29:19;;;;;;;;;;;19.20;99.90;;;;;;5135179;27;20366;-82
2022/07/15 11:31:47;;;;;;;;;;;19.40;99.90;;;;;;5135237;27;20381;-82
2022/07/15 11:34:13;;;;;;;;;;;19.80;99.90;;;;;;5131970;27;19923;-83
2022/07/15 11:36:38;;;;;;;;;;;20.00;99.90;;;;;;5112844;27;19933;-81
2022/07/15 11:39:04;;;;;;;;;;;20.00;99.90;;;;;;5131338;27;19985;-82
2022/07/15 11:44:29;;;;;;;;;;;20.40;99.90;;;;;;5120652;27;20014;-82
2022/07/15 11:46:55;;;;;;;;;;;20.40;99.90;;;;;;5117877;27;19923;-84
2022/07/15 11:49:43;;;;;;;;;;;20.40;99.90;;;;;;5117211;27;20263;-83
2022/07/15 11:52:10;;;;;;;;;;;20.20;99.90;;;;;;5134400;27;19927;-83
2022/07/15 11:54:40;;;;;;;;;;;20.00;99.90;;;;;;5117489;27;20366;-81
2022/07/15 11:57:07;;;;;;;;;;;20.00;99.90;;;;;;5121422;27;19938;-82
2022/07/15 11:59:32;;;;;;;;;;;19.80;99.90;;;;;;5117278;27;19923;-84
2022/07/15 12:02:03;;;;;;;;;;;19.70;99.90;;;;;;5117629;27;20059;-83
2022/07/15 12:04:29;;;;;;;;;;;19.60;99.90;;;;;;5130862;27;20283;-82
2022/07/15 12:06:54;;;;;;;;;;;19.50;99.90;;;;;;5112527;27;19923;-83
2022/07/15 12:09:20;;;;;;;;;;;19.40;99.90;;;;;;5115735;27;19923;-79
2022/07/15 12:11:46;;;;;;;;;;;19.40;99.90;;;;;;5116548;27;19927;-83
2022/07/15 12:14:12;;;;;;;;;;;19.40;99.90;;;;;;5117335;27;19927;-80
2022/07/15 12:16:49;;;;;;;;;;;19.60;99.90;;;;;;5117557;27;19984;-85
2022/07/15 12:19:15;;;;;;;;;;;19.60;99.90;;;;;;5133444;27;19982;-86
2022/07/15 12:21:41;;;;;;;;;;;19.60;99.90;;;;;;5130580;27;19927;-86
2022/07/15 12:24:07;;;;;;;;;;;19.70;99.90;;;;;;5083843;27;19933;-85
2022/07/15 12:26:34;;;;;;;;;;;19.80;99.90;;;;;;5134125;27;19927;-80
2022/07/15 12:29:01;;;;;;;;;;;19.90;99.90;;;;;;5128129;27;20378;-82
2022/07/15 12:31:28;;;;;;;;;;;20.10;99.90;;;;;;5137081;27;19941;-83
2022/07/15 12:33:53;;;;;;;;;;;20.20;99.90;;;;;;5136945;27;20440;-83
2022/07/15 12:36:20;;;;;;;;;;;20.40;99.90;;;;;;5134577;27;19927;-82
2022/07/15 12:39:01;;;;;;;;;;;20.40;99.90;;;;;;5152575;27;20013;-82
2022/07/15 12:41:27;;;;;;;;;;;20.70;99.90;;;;;;5141805;27;19923;-81
2022/07/15 12:43:57;;;;;;;;;;;21.10;99.90;;;;;;5129640;27;19928;-83
2022/07/15 12:46:41;;;;;;;;;;;21.40;99.90;;;;;;5108909;28;20311;-81
2022/07/15 12:49:07;;;;;;;;;;;21.70;99.90;;;;;;5095518;28;19974;-82
2022/07/15 12:51:33;;;;;;;;;;;21.80;99.90;;;;;;5129643;27;20367;-83
2022/07/15 12:54:05;;;;;;;;;;;22.30;99.90;;;;;;5112800;28;20367;-84
2022/07/15 12:56:49;;;;;;;;;;;22.50;99.90;;;;;;5126878;27;19934;-82
2022/07/15 12:59:15;;;;;;;;;;;22.80;99.90;;;;;;5134138;27;20294;-85
2022/07/15 13:01:44;;;;;;;;;;;23.20;99.90;;;;;;5095189;28;19919;-85
2022/07/15 13:04:10;;;;;;;;;;;23.10;99.90;;;;;;5113144;28;20316;-84
2022/07/15 13:06:35;;;;;;;;;;;23.20;99.90;;;;;;5115145;28;19941;-85
2022/07/15 13:09:01;;;;;;;;;;;22.60;99.90;;;;;;5103422;28;19934;-89
2022/07/15 13:11:26;;;;;;;;;;;22.30;99.90;;;;;;5120160;27;19973;-87
2022/07/15 13:13:52;;;;;;;;;;;22.70;99.90;;;;;;5133761;27;19927;-88
2022/07/15 13:16:17;;;;;;;;;;;22.70;99.90;;;;;;5128900;27;19966;-85
2022/07/15 13:18:43;;;;;;;;;;;22.70;99.90;;;;;;5099636;27;20360;-86
2022/07/15 13:21:09;;;;;;;;;;;22.50;99.90;;;;;;5096380;28;19924;-88
2022/07/15 13:23:34;;;;;;;;;;;22.30;99.90;;;;;;5113961;28;20279;-84
2022/07/15 13:26:00;;;;;;;;;;;22.30;99.90;;;;;;5113485;28;19971;-85
2022/07/15 13:28:25;;;;;;;;;;;22.50;99.90;;;;;;5120504;28;19932;-86
2022/07/15 13:30:51;;;;;;;;;;;22.30;99.90;;;;;;5096052;28;19954;-84
2022/07/15 13:33:17;;;;;;;;;;;22.20;99.90;;;;;;5112840;27;20252;-81
2022/07/15 13:35:42;;;;;;;;;;;22.20;99.90;;;;;;5132854;27;19928;-87
2022/07/15 13:38:08;;;;;;;;;;;22.00;99.90;;;;;;5114211;27;19923;-88
2022/07/15 13:40:34;;;;;;;;;;;21.90;99.90;;;;;;5133988;27;19927;-88
2022/07/15 13:42:59;;;;;;;;;;;21.60;99.90;;;;;;5098961;27;19930;-85
2022/07/15 13:45:25;;;;;;;;;;;21.60;99.90;;;;;;5103938;27;19927;-83
2022/07/15 13:47:51;;;;;;;;;;;21.60;99.90;;;;;;5134207;27;19934;-86
2022/07/15 13:53:00;;;;;;;;;;;21.90;99.90;;;;;;5117375;27;19928;-84
2022/07/15 13:55:26;;;;;;;;;;;21.70;99.90;;;;;;5117901;27;20052;-82
2022/07/15 13:57:52;;;;;;;;;;;21.60;99.90;;;;;;5138020;27;19934;-83
2022/07/15 14:00:22;;;;;;;;;;;21.50;99.90;;;;;;5126059;27;19930;-85
2022/07/15 14:02:48;;;;;;;;;;;21.40;99.90;;;;;;5126615;27;19923;-85
2022/07/15 14:05:14;;;;;;;;;;;22.10;99.90;;;;;;5135495;27;19927;-88
2022/07/15 14:07:40;;;;;;;;;;;22.40;99.90;;;;;;5135217;27;19970;-86
2022/07/15 14:10:07;;;;;;;;;;;22.20;99.90;;;;;;5134299;27;19923;-88
2022/07/15 14:12:32;;;;;;;;;;;22.00;99.90;;;;;;5117617;27;19923;-88
2022/07/15 14:14:58;;;;;;;;;;;21.80;99.90;;;;;;5119361;27;20393;-86
2022/07/15 14:17:24;;;;;;;;;;;21.70;99.90;;;;;;5120538;27;19923;-85
2022/07/15 14:19:49;;;;;;;;;;;21.60;99.90;;;;;;5099569;27;19980;-85
2022/07/15 14:22:15;;;;;;;;;;;21.60;99.90;;;;;;5117445;27;19941;-84
2022/07/15 14:24:40;;;;;;;;;;;21.40;99.90;;;;;;5103532;27;19923;-86
2022/07/15 14:27:06;;;;;;;;;;;21.30;99.90;;;;;;5120901;27;19931;-85